sensor_id;sensor_type;location;lat;lon;timestamp;P1;durP1;ratioP1;P2;durP2;ratioP2
75386;SDS011;63966;47.914;22.266;2023-05-17T00:01:09;14.95;;;5.05;;
75386;SDS011;63966;47.914;22.266;2023-05-17T00:04:12;19.57;;;5.40;;
75386;SDS011;63966;47.914;22.266;2023-05-17T00:07:15;22.00;;;5.72;;
75386;SDS011;63966;47.914;22.266;2023-05-17T00:10:19;16.10;;;5.43;;
75386;SDS011;63966;47.914;22.266;2023-05-17T00:13:22;18.92;;;5.40;;
75386;SDS011;63966;47.914;22.266;2023-05-17T00:16:26;17.40;;;6.10;;
75386;SDS011;63966;47.914;22.266;2023-05-17T00:19:29;16.57;;;5.83;;
75386;SDS011;63966;47.914;22.266;2023-05-17T00:22:33;18.50;;;6.25;;
75386;SDS011;63966;47.914;22.266;2023-05-17T00:25:36;18.60;;;5.43;;
75386;SDS011;63966;47.914;22.266;2023-05-17T00:28:39;15.80;;;5.70;;
75386;SDS011;63966;47.914;22.266;2023-05-17T00:31:43;16.75;;;6.25;;
75386;SDS011;63966;47.914;22.266;2023-05-17T00:34:46;12.57;;;5.30;;
75386;SDS011;63966;47.914;22.266;2023-05-17T00:37:49;14.02;;;5.55;;
75386;SDS011;63966;47.914;22.266;2023-05-17T00:40:53;16.73;;;5.55;;
75386;SDS011;63966;47.914;22.266;2023-05-17T00:43:56;15.73;;;5.72;;
75386;SDS011;63966;47.914;22.266;2023-05-17T00:47:00;15.75;;;5.15;;
75386;SDS011;63966;47.914;22.266;2023-05-17T00:50:04;16.40;;;5.00;;
75386;SDS011;63966;47.914;22.266;2023-05-17T00:53:08;11.05;;;4.80;;
75386;SDS011;63966;47.914;22.266;2023-05-17T00:56:17;14.75;;;5.30;;
75386;SDS011;63966;47.914;22.266;2023-05-17T00:59:20;20.25;;;6.28;;
75386;SDS011;63966;47.914;22.266;2023-05-17T01:02:25;20.40;;;6.28;;
75386;SDS011;63966;47.914;22.266;2023-05-17T01:05:29;17.67;;;5.77;;
75386;SDS011;63966;47.914;22.266;2023-05-17T01:08:32;13.25;;;4.72;;
75386;SDS011;63966;47.914;22.266;2023-05-17T01:15:06;16.77;;;5.30;;
75386;SDS011;63966;47.914;22.266;2023-05-17T01:28:08;16.52;;;6.80;;
75386;SDS011;63966;47.914;22.266;2023-05-17T01:31:13;16.15;;;6.22;;
75386;SDS011;63966;47.914;22.266;2023-05-17T01:34:26;14.55;;;5.28;;
75386;SDS011;63966;47.914;22.266;2023-05-17T01:37:30;12.80;;;4.73;;
75386;SDS011;63966;47.914;22.266;2023-05-17T01:40:34;19.83;;;6.75;;
75386;SDS011;63966;47.914;22.266;2023-05-17T01:43:45;13.90;;;5.65;;
75386;SDS011;63966;47.914;22.266;2023-05-17T01:46:50;17.17;;;6.95;;
75386;SDS011;63966;47.914;22.266;2023-05-17T01:50:02;18.38;;;6.20;;
75386;SDS011;63966;47.914;22.266;2023-05-17T01:53:10;16.93;;;6.43;;
75386;SDS011;63966;47.914;22.266;2023-05-17T01:56:26;14.55;;;5.75;;
75386;SDS011;63966;47.914;22.266;2023-05-17T01:59:35;19.90;;;5.90;;
75386;SDS011;63966;47.914;22.266;2023-05-17T02:02:41;18.17;;;5.90;;
75386;SDS011;63966;47.914;22.266;2023-05-17T02:05:46;18.02;;;5.78;;
75386;SDS011;63966;47.914;22.266;2023-05-17T02:08:49;17.80;;;6.07;;
75386;SDS011;63966;47.914;22.266;2023-05-17T02:11:53;16.95;;;5.07;;
75386;SDS011;63966;47.914;22.266;2023-05-17T02:14:56;16.13;;;5.47;;
75386;SDS011;63966;47.914;22.266;2023-05-17T02:18:00;15.45;;;5.30;;
75386;SDS011;63966;47.914;22.266;2023-05-17T02:21:04;17.15;;;5.25;;
75386;SDS011;63966;47.914;22.266;2023-05-17T02:24:07;16.77;;;5.83;;
75386;SDS011;63966;47.914;22.266;2023-05-17T02:27:10;17.70;;;5.82;;
75386;SDS011;63966;47.914;22.266;2023-05-17T02:30:14;17.20;;;6.15;;
75386;SDS011;63966;47.914;22.266;2023-05-17T02:33:19;16.63;;;6.80;;
75386;SDS011;63966;47.914;22.266;2023-05-17T02:36:23;18.80;;;6.07;;
75386;SDS011;63966;47.914;22.266;2023-05-17T02:39:27;17.80;;;5.20;;
75386;SDS011;63966;47.914;22.266;2023-05-17T02:42:30;16.52;;;5.13;;
75386;SDS011;63966;47.914;22.266;2023-05-17T02:45:33;14.40;;;4.72;;
75386;SDS011;63966;47.914;22.266;2023-05-17T02:48:37;12.73;;;5.38;;
75386;SDS011;63966;47.914;22.266;2023-05-17T02:51:40;16.92;;;5.05;;
75386;SDS011;63966;47.914;22.266;2023-05-17T02:54:44;18.63;;;5.27;;
75386;SDS011;63966;47.914;22.266;2023-05-17T02:57:49;17.80;;;5.55;;
75386;SDS011;63966;47.914;22.266;2023-05-17T03:00:52;15.52;;;5.28;;
75386;SDS011;63966;47.914;22.266;2023-05-17T03:03:56;12.88;;;4.93;;
75386;SDS011;63966;47.914;22.266;2023-05-17T03:07:00;16.85;;;5.10;;
75386;SDS011;63966;47.914;22.266;2023-05-17T03:10:06;17.60;;;5.27;;
75386;SDS011;63966;47.914;22.266;2023-05-17T03:13:15;16.77;;;5.07;;
75386;SDS011;63966;47.914;22.266;2023-05-17T03:16:19;14.65;;;4.97;;
75386;SDS011;63966;47.914;22.266;2023-05-17T03:19:24;13.40;;;5.07;;
75386;SDS011;63966;47.914;22.266;2023-05-17T03:22:28;15.75;;;5.22;;
75386;SDS011;63966;47.914;22.266;2023-05-17T03:25:33;13.37;;;4.60;;
75386;SDS011;63966;47.914;22.266;2023-05-17T03:28:38;14.82;;;4.75;;
75386;SDS011;63966;47.914;22.266;2023-05-17T03:31:41;13.85;;;5.25;;
75386;SDS011;63966;47.914;22.266;2023-05-17T03:34:45;12.98;;;5.07;;
75386;SDS011;63966;47.914;22.266;2023-05-17T03:37:49;18.42;;;7.35;;
75386;SDS011;63966;47.914;22.266;2023-05-17T03:40:53;24.47;;;5.73;;
75386;SDS011;63966;47.914;22.266;2023-05-17T03:43:57;14.25;;;5.28;;
75386;SDS011;63966;47.914;22.266;2023-05-17T03:47:00;16.20;;;5.05;;
75386;SDS011;63966;47.914;22.266;2023-05-17T03:50:04;17.52;;;5.32;;
75386;SDS011;63966;47.914;22.266;2023-05-17T03:53:09;17.23;;;4.40;;
75386;SDS011;63966;47.914;22.266;2023-05-17T03:56:13;16.17;;;4.90;;
75386;SDS011;63966;47.914;22.266;2023-05-17T03:59:17;10.23;;;4.30;;
75386;SDS011;63966;47.914;22.266;2023-05-17T04:02:21;16.67;;;4.57;;
75386;SDS011;63966;47.914;22.266;2023-05-17T04:05:24;14.30;;;4.88;;
75386;SDS011;63966;47.914;22.266;2023-05-17T04:08:29;13.27;;;4.80;;
75386;SDS011;63966;47.914;22.266;2023-05-17T04:11:33;12.23;;;4.93;;
75386;SDS011;63966;47.914;22.266;2023-05-17T04:14:36;15.32;;;4.90;;
75386;SDS011;63966;47.914;22.266;2023-05-17T04:17:40;11.90;;;5.32;;
75386;SDS011;63966;47.914;22.266;2023-05-17T04:20:44;16.70;;;5.80;;
75386;SDS011;63966;47.914;22.266;2023-05-17T04:23:48;11.88;;;5.22;;
75386;SDS011;63966;47.914;22.266;2023-05-17T04:26:51;18.13;;;4.90;;
75386;SDS011;63966;47.914;22.266;2023-05-17T04:29:58;15.63;;;5.10;;
75386;SDS011;63966;47.914;22.266;2023-05-17T04:33:02;16.70;;;5.30;;
75386;SDS011;63966;47.914;22.266;2023-05-17T04:36:05;13.43;;;4.85;;
75386;SDS011;63966;47.914;22.266;2023-05-17T04:39:10;14.75;;;4.72;;
75386;SDS011;63966;47.914;22.266;2023-05-17T04:42:14;15.80;;;4.93;;
75386;SDS011;63966;47.914;22.266;2023-05-17T04:45:23;18.13;;;5.72;;
75386;SDS011;63966;47.914;22.266;2023-05-17T04:48:30;13.07;;;5.70;;
75386;SDS011;63966;47.914;22.266;2023-05-17T04:51:34;16.23;;;5.25;;
75386;SDS011;63966;47.914;22.266;2023-05-17T04:54:38;16.33;;;6.10;;
75386;SDS011;63966;47.914;22.266;2023-05-17T04:57:42;15.33;;;6.10;;
75386;SDS011;63966;47.914;22.266;2023-05-17T05:00:48;15.77;;;6.18;;
75386;SDS011;63966;47.914;22.266;2023-05-17T05:03:53;15.05;;;5.80;;
75386;SDS011;63966;47.914;22.266;2023-05-17T05:06:56;16.13;;;6.15;;
75386;SDS011;63966;47.914;22.266;2023-05-17T05:10:00;18.02;;;6.47;;
75386;SDS011;63966;47.914;22.266;2023-05-17T05:13:03;15.93;;;6.13;;
75386;SDS011;63966;47.914;22.266;2023-05-17T05:16:07;14.60;;;5.82;;
75386;SDS011;63966;47.914;22.266;2023-05-17T05:19:11;16.58;;;5.90;;
75386;SDS011;63966;47.914;22.266;2023-05-17T05:22:15;17.02;;;5.75;;
75386;SDS011;63966;47.914;22.266;2023-05-17T05:25:19;14.70;;;6.43;;
75386;SDS011;63966;47.914;22.266;2023-05-17T05:28:23;17.67;;;6.30;;
75386;SDS011;63966;47.914;22.266;2023-05-17T05:31:26;19.75;;;5.40;;
75386;SDS011;63966;47.914;22.266;2023-05-17T05:34:32;18.35;;;7.30;;
75386;SDS011;63966;47.914;22.266;2023-05-17T05:37:35;16.40;;;5.95;;
75386;SDS011;63966;47.914;22.266;2023-05-17T05:40:39;18.77;;;5.63;;
75386;SDS011;63966;47.914;22.266;2023-05-17T05:43:49;17.90;;;5.87;;
75386;SDS011;63966;47.914;22.266;2023-05-17T05:46:53;14.93;;;6.35;;
75386;SDS011;63966;47.914;22.266;2023-05-17T05:49:57;14.85;;;5.65;;
75386;SDS011;63966;47.914;22.266;2023-05-17T05:53:00;18.67;;;7.43;;
75386;SDS011;63966;47.914;22.266;2023-05-17T05:56:20;18.00;;;6.10;;
75386;SDS011;63966;47.914;22.266;2023-05-17T05:59:26;14.20;;;5.67;;
75386;SDS011;63966;47.914;22.266;2023-05-17T06:02:31;12.82;;;4.82;;
75386;SDS011;63966;47.914;22.266;2023-05-17T06:05:36;12.02;;;5.40;;
75386;SDS011;63966;47.914;22.266;2023-05-17T06:08:40;12.40;;;5.53;;
75386;SDS011;63966;47.914;22.266;2023-05-17T06:11:46;12.07;;;5.22;;
75386;SDS011;63966;47.914;22.266;2023-05-17T06:14:50;13.03;;;5.10;;
75386;SDS011;63966;47.914;22.266;2023-05-17T06:17:53;14.40;;;5.10;;
75386;SDS011;63966;47.914;22.266;2023-05-17T06:20:56;11.88;;;5.18;;
75386;SDS011;63966;47.914;22.266;2023-05-17T06:24:00;14.38;;;5.15;;
75386;SDS011;63966;47.914;22.266;2023-05-17T06:27:06;13.90;;;5.40;;
75386;SDS011;63966;47.914;22.266;2023-05-17T06:30:09;14.33;;;4.63;;
75386;SDS011;63966;47.914;22.266;2023-05-17T06:33:13;18.25;;;4.93;;
75386;SDS011;63966;47.914;22.266;2023-05-17T06:36:17;12.55;;;5.85;;
75386;SDS011;63966;47.914;22.266;2023-05-17T06:39:20;11.95;;;4.82;;
75386;SDS011;63966;47.914;22.266;2023-05-17T06:42:24;11.60;;;4.65;;
75386;SDS011;63966;47.914;22.266;2023-05-17T06:45:27;13.97;;;5.53;;
75386;SDS011;63966;47.914;22.266;2023-05-17T06:48:30;14.00;;;6.03;;
75386;SDS011;63966;47.914;22.266;2023-05-17T06:51:35;15.40;;;6.40;;
75386;SDS011;63966;47.914;22.266;2023-05-17T06:54:38;15.45;;;6.20;;
75386;SDS011;63966;47.914;22.266;2023-05-17T06:57:42;18.52;;;6.13;;
75386;SDS011;63966;47.914;22.266;2023-05-17T07:00:45;17.10;;;6.17;;
75386;SDS011;63966;47.914;22.266;2023-05-17T07:03:49;16.02;;;6.57;;
75386;SDS011;63966;47.914;22.266;2023-05-17T07:06:52;14.00;;;5.50;;
75386;SDS011;63966;47.914;22.266;2023-05-17T07:09:55;13.73;;;5.90;;
75386;SDS011;63966;47.914;22.266;2023-05-17T07:12:59;15.57;;;6.88;;
75386;SDS011;63966;47.914;22.266;2023-05-17T07:16:06;15.63;;;5.30;;
75386;SDS011;63966;47.914;22.266;2023-05-17T07:19:10;16.17;;;5.45;;
75386;SDS011;63966;47.914;22.266;2023-05-17T07:22:14;13.93;;;4.63;;
75386;SDS011;63966;47.914;22.266;2023-05-17T07:25:19;15.63;;;5.47;;
75386;SDS011;63966;47.914;22.266;2023-05-17T07:28:23;11.82;;;5.00;;
75386;SDS011;63966;47.914;22.266;2023-05-17T07:31:26;13.37;;;4.70;;
75386;SDS011;63966;47.914;22.266;2023-05-17T07:34:30;14.77;;;5.50;;
75386;SDS011;63966;47.914;22.266;2023-05-17T07:37:34;16.45;;;4.97;;
75386;SDS011;63966;47.914;22.266;2023-05-17T07:40:37;12.90;;;4.88;;
75386;SDS011;63966;47.914;22.266;2023-05-17T07:43:41;12.60;;;5.00;;
75386;SDS011;63966;47.914;22.266;2023-05-17T07:46:47;14.03;;;5.30;;
75386;SDS011;63966;47.914;22.266;2023-05-17T07:49:50;15.50;;;5.32;;
75386;SDS011;63966;47.914;22.266;2023-05-17T07:52:54;11.13;;;4.95;;
75386;SDS011;63966;47.914;22.266;2023-05-17T07:55:57;16.80;;;6.18;;
75386;SDS011;63966;47.914;22.266;2023-05-17T07:59:01;14.93;;;5.80;;
75386;SDS011;63966;47.914;22.266;2023-05-17T08:02:05;16.10;;;5.50;;
75386;SDS011;63966;47.914;22.266;2023-05-17T08:05:09;15.35;;;5.55;;
75386;SDS011;63966;47.914;22.266;2023-05-17T08:08:14;19.27;;;5.97;;
75386;SDS011;63966;47.914;22.266;2023-05-17T08:11:17;14.73;;;4.55;;
75386;SDS011;63966;47.914;22.266;2023-05-17T08:14:21;16.00;;;4.90;;
75386;SDS011;63966;47.914;22.266;2023-05-17T08:17:25;14.57;;;4.57;;
75386;SDS011;63966;47.914;22.266;2023-05-17T08:20:29;15.13;;;4.97;;
75386;SDS011;63966;47.914;22.266;2023-05-17T08:23:32;13.02;;;4.55;;
75386;SDS011;63966;47.914;22.266;2023-05-17T08:26:36;15.40;;;5.13;;
75386;SDS011;63966;47.914;22.266;2023-05-17T08:29:39;14.13;;;4.70;;
75386;SDS011;63966;47.914;22.266;2023-05-17T08:32:43;13.27;;;3.97;;
75386;SDS011;63966;47.914;22.266;2023-05-17T08:35:47;14.88;;;3.90;;
75386;SDS011;63966;47.914;22.266;2023-05-17T08:38:51;14.10;;;4.20;;
75386;SDS011;63966;47.914;22.266;2023-05-17T08:41:54;13.93;;;4.20;;
75386;SDS011;63966;47.914;22.266;2023-05-17T08:45:00;14.05;;;4.20;;
75386;SDS011;63966;47.914;22.266;2023-05-17T08:48:04;15.37;;;3.90;;
75386;SDS011;63966;47.914;22.266;2023-05-17T08:51:08;10.13;;;4.07;;
75386;SDS011;63966;47.914;22.266;2023-05-17T08:54:13;8.10;;;3.72;;
75386;SDS011;63966;47.914;22.266;2023-05-17T08:57:16;13.18;;;2.97;;
75386;SDS011;63966;47.914;22.266;2023-05-17T09:00:21;11.93;;;3.60;;
75386;SDS011;63966;47.914;22.266;2023-05-17T09:03:27;9.93;;;3.70;;
75386;SDS011;63966;47.914;22.266;2023-05-17T09:06:33;9.93;;;3.35;;
75386;SDS011;63966;47.914;22.266;2023-05-17T09:09:37;9.68;;;3.42;;
75386;SDS011;63966;47.914;22.266;2023-05-17T09:12:40;11.55;;;3.47;;
75386;SDS011;63966;47.914;22.266;2023-05-17T09:15:48;9.13;;;3.28;;
75386;SDS011;63966;47.914;22.266;2023-05-17T09:18:55;7.80;;;3.00;;
75386;SDS011;63966;47.914;22.266;2023-05-17T09:21:59;11.35;;;3.00;;
75386;SDS011;63966;47.914;22.266;2023-05-17T09:25:04;10.45;;;3.55;;
75386;SDS011;63966;47.914;22.266;2023-05-17T09:28:08;7.45;;;2.50;;
75386;SDS011;63966;47.914;22.266;2023-05-17T09:31:14;9.18;;;3.00;;
75386;SDS011;63966;47.914;22.266;2023-05-17T09:34:18;12.50;;;3.20;;
75386;SDS011;63966;47.914;22.266;2023-05-17T09:37:22;11.65;;;3.00;;
75386;SDS011;63966;47.914;22.266;2023-05-17T09:40:27;12.25;;;3.33;;
75386;SDS011;63966;47.914;22.266;2023-05-17T09:43:30;10.88;;;3.47;;
75386;SDS011;63966;47.914;22.266;2023-05-17T09:46:34;12.10;;;3.33;;
75386;SDS011;63966;47.914;22.266;2023-05-17T09:49:40;8.60;;;3.00;;
75386;SDS011;63966;47.914;22.266;2023-05-17T09:52:44;9.80;;;3.20;;
75386;SDS011;63966;47.914;22.266;2023-05-17T09:55:51;10.13;;;3.70;;
75386;SDS011;63966;47.914;22.266;2023-05-17T09:59:02;10.57;;;3.63;;
75386;SDS011;63966;47.914;22.266;2023-05-17T10:02:18;9.23;;;3.40;;
75386;SDS011;63966;47.914;22.266;2023-05-17T10:05:31;8.87;;;3.00;;
75386;SDS011;63966;47.914;22.266;2023-05-17T10:08:37;12.82;;;3.75;;
75386;SDS011;63966;47.914;22.266;2023-05-17T10:11:46;11.80;;;3.90;;
75386;SDS011;63966;47.914;22.266;2023-05-17T10:14:49;13.30;;;3.25;;
75386;SDS011;63966;47.914;22.266;2023-05-17T10:17:57;12.75;;;3.47;;
75386;SDS011;63966;47.914;22.266;2023-05-17T10:21:01;8.50;;;3.03;;
75386;SDS011;63966;47.914;22.266;2023-05-17T10:24:11;9.18;;;3.13;;
75386;SDS011;63966;47.914;22.266;2023-05-17T10:27:15;10.52;;;3.20;;
75386;SDS011;63966;47.914;22.266;2023-05-17T10:30:19;13.13;;;3.63;;
75386;SDS011;63966;47.914;22.266;2023-05-17T10:33:23;9.63;;;3.40;;
75386;SDS011;63966;47.914;22.266;2023-05-17T10:36:29;10.63;;;2.80;;
75386;SDS011;63966;47.914;22.266;2023-05-17T10:39:34;7.85;;;3.45;;
75386;SDS011;63966;47.914;22.266;2023-05-17T10:42:41;10.20;;;3.00;;
75386;SDS011;63966;47.914;22.266;2023-05-17T10:45:47;7.70;;;2.53;;
75386;SDS011;63966;47.914;22.266;2023-05-17T10:48:52;8.18;;;3.03;;
75386;SDS011;63966;47.914;22.266;2023-05-17T10:51:57;11.47;;;4.07;;
75386;SDS011;63966;47.914;22.266;2023-05-17T10:55:13;12.05;;;3.33;;
75386;SDS011;63966;47.914;22.266;2023-05-17T10:58:26;12.05;;;3.30;;
75386;SDS011;63966;47.914;22.266;2023-05-17T11:04:56;13.25;;;3.42;;
75386;SDS011;63966;47.914;22.266;2023-05-17T11:08:17;9.47;;;2.93;;
75386;SDS011;63966;47.914;22.266;2023-05-17T11:11:20;9.18;;;3.13;;
75386;SDS011;63966;47.914;22.266;2023-05-17T11:14:23;10.20;;;2.83;;
75386;SDS011;63966;47.914;22.266;2023-05-17T11:17:33;9.57;;;2.97;;
75386;SDS011;63966;47.914;22.266;2023-05-17T11:20:40;8.52;;;3.30;;
75386;SDS011;63966;47.914;22.266;2023-05-17T11:23:44;11.13;;;3.03;;
75386;SDS011;63966;47.914;22.266;2023-05-17T11:26:48;10.73;;;3.67;;
75386;SDS011;63966;47.914;22.266;2023-05-17T11:29:53;11.38;;;3.35;;
75386;SDS011;63966;47.914;22.266;2023-05-17T11:32:58;9.13;;;3.38;;
75386;SDS011;63966;47.914;22.266;2023-05-17T11:36:04;10.25;;;3.72;;
75386;SDS011;63966;47.914;22.266;2023-05-17T11:39:14;11.37;;;3.50;;
75386;SDS011;63966;47.914;22.266;2023-05-17T11:42:23;11.40;;;4.00;;
75386;SDS011;63966;47.914;22.266;2023-05-17T11:45:27;13.52;;;3.67;;
75386;SDS011;63966;47.914;22.266;2023-05-17T11:48:40;14.27;;;4.88;;
75386;SDS011;63966;47.914;22.266;2023-05-17T11:51:44;9.88;;;3.38;;
75386;SDS011;63966;47.914;22.266;2023-05-17T11:54:48;12.57;;;3.83;;
75386;SDS011;63966;47.914;22.266;2023-05-17T11:57:53;9.82;;;3.70;;
75386;SDS011;63966;47.914;22.266;2023-05-17T12:00:57;14.73;;;3.78;;
75386;SDS011;63966;47.914;22.266;2023-05-17T12:04:01;9.80;;;3.72;;
75386;SDS011;63966;47.914;22.266;2023-05-17T12:07:07;10.07;;;3.63;;
75386;SDS011;63966;47.914;22.266;2023-05-17T12:10:12;13.10;;;3.70;;
75386;SDS011;63966;47.914;22.266;2023-05-17T12:13:16;11.27;;;3.63;;
75386;SDS011;63966;47.914;22.266;2023-05-17T12:16:20;11.13;;;4.38;;
75386;SDS011;63966;47.914;22.266;2023-05-17T12:19:24;9.15;;;4.22;;
75386;SDS011;63966;47.914;22.266;2023-05-17T12:22:31;8.50;;;3.75;;
75386;SDS011;63966;47.914;22.266;2023-05-17T12:25:34;12.60;;;4.10;;
75386;SDS011;63966;47.914;22.266;2023-05-17T12:28:38;9.52;;;3.72;;
75386;SDS011;63966;47.914;22.266;2023-05-17T12:32:02;9.88;;;3.67;;
75386;SDS011;63966;47.914;22.266;2023-05-17T12:35:06;9.95;;;3.67;;
75386;SDS011;63966;47.914;22.266;2023-05-17T12:38:13;14.13;;;4.70;;
75386;SDS011;63966;47.914;22.266;2023-05-17T12:41:16;8.73;;;3.80;;
75386;SDS011;63966;47.914;22.266;2023-05-17T12:44:23;10.65;;;4.25;;
75386;SDS011;63966;47.914;22.266;2023-05-17T12:47:30;9.63;;;3.55;;
75386;SDS011;63966;47.914;22.266;2023-05-17T12:50:34;10.65;;;3.47;;
75386;SDS011;63966;47.914;22.266;2023-05-17T12:53:41;10.45;;;3.60;;
75386;SDS011;63966;47.914;22.266;2023-05-17T12:56:45;9.87;;;3.03;;
75386;SDS011;63966;47.914;22.266;2023-05-17T12:59:49;12.32;;;3.40;;
75386;SDS011;63966;47.914;22.266;2023-05-17T13:02:54;9.50;;;3.88;;
75386;SDS011;63966;47.914;22.266;2023-05-17T13:05:59;7.63;;;3.47;;
75386;SDS011;63966;47.914;22.266;2023-05-17T13:09:05;8.93;;;3.60;;
75386;SDS011;63966;47.914;22.266;2023-05-17T13:12:08;7.73;;;3.57;;
75386;SDS011;63966;47.914;22.266;2023-05-17T13:15:11;11.98;;;3.60;;
75386;SDS011;63966;47.914;22.266;2023-05-17T13:18:16;7.82;;;3.40;;
75386;SDS011;63966;47.914;22.266;2023-05-17T13:21:22;12.70;;;3.15;;
75386;SDS011;63966;47.914;22.266;2023-05-17T13:24:26;8.07;;;3.13;;
75386;SDS011;63966;47.914;22.266;2023-05-17T13:27:29;7.60;;;3.33;;
75386;SDS011;63966;47.914;22.266;2023-05-17T13:30:32;10.30;;;3.35;;
75386;SDS011;63966;47.914;22.266;2023-05-17T13:33:37;8.60;;;3.15;;
75386;SDS011;63966;47.914;22.266;2023-05-17T13:36:40;9.77;;;3.25;;
75386;SDS011;63966;47.914;22.266;2023-05-17T13:39:46;12.00;;;3.30;;
75386;SDS011;63966;47.914;22.266;2023-05-17T13:42:50;9.17;;;3.23;;
75386;SDS011;63966;47.914;22.266;2023-05-17T13:45:53;12.65;;;3.60;;
75386;SDS011;63966;47.914;22.266;2023-05-17T13:48:59;7.30;;;3.03;;
75386;SDS011;63966;47.914;22.266;2023-05-17T13:52:05;9.32;;;3.33;;
75386;SDS011;63966;47.914;22.266;2023-05-17T13:55:14;6.78;;;2.92;;
75386;SDS011;63966;47.914;22.266;2023-05-17T13:58:17;5.93;;;2.77;;
75386;SDS011;63966;47.914;22.266;2023-05-17T14:01:20;8.70;;;3.10;;
75386;SDS011;63966;47.914;22.266;2023-05-17T14:04:24;9.85;;;3.58;;
75386;SDS011;63966;47.914;22.266;2023-05-17T14:07:27;11.80;;;3.20;;
75386;SDS011;63966;47.914;22.266;2023-05-17T14:10:31;8.05;;;3.60;;
75386;SDS011;63966;47.914;22.266;2023-05-17T14:13:34;8.50;;;3.17;;
75386;SDS011;63966;47.914;22.266;2023-05-17T14:16:38;10.98;;;3.47;;
75386;SDS011;63966;47.914;22.266;2023-05-17T14:19:42;9.82;;;3.83;;
75386;SDS011;63966;47.914;22.266;2023-05-17T14:22:45;9.27;;;3.10;;
75386;SDS011;63966;47.914;22.266;2023-05-17T14:25:49;12.32;;;3.30;;
75386;SDS011;63966;47.914;22.266;2023-05-17T14:28:52;10.77;;;3.30;;
75386;SDS011;63966;47.914;22.266;2023-05-17T14:31:55;9.43;;;3.28;;
75386;SDS011;63966;47.914;22.266;2023-05-17T14:34:59;9.07;;;3.35;;
75386;SDS011;63966;47.914;22.266;2023-05-17T14:38:02;7.90;;;2.67;;
75386;SDS011;63966;47.914;22.266;2023-05-17T14:41:06;9.55;;;3.15;;
75386;SDS011;63966;47.914;22.266;2023-05-17T14:44:09;7.90;;;2.80;;
75386;SDS011;63966;47.914;22.266;2023-05-17T14:47:12;10.60;;;3.30;;
75386;SDS011;63966;47.914;22.266;2023-05-17T14:50:16;7.95;;;3.78;;
75386;SDS011;63966;47.914;22.266;2023-05-17T14:53:19;10.40;;;3.08;;
75386;SDS011;63966;47.914;22.266;2023-05-17T14:56:22;9.77;;;3.60;;
75386;SDS011;63966;47.914;22.266;2023-05-17T14:59:26;11.83;;;3.30;;
75386;SDS011;63966;47.914;22.266;2023-05-17T15:02:30;8.23;;;3.08;;
75386;SDS011;63966;47.914;22.266;2023-05-17T15:05:33;6.95;;;3.17;;
75386;SDS011;63966;47.914;22.266;2023-05-17T15:08:37;5.65;;;2.90;;
75386;SDS011;63966;47.914;22.266;2023-05-17T15:11:40;9.00;;;2.90;;
75386;SDS011;63966;47.914;22.266;2023-05-17T15:14:43;9.13;;;3.10;;
75386;SDS011;63966;47.914;22.266;2023-05-17T15:17:48;8.90;;;3.08;;
75386;SDS011;63966;47.914;22.266;2023-05-17T15:20:53;7.10;;;2.97;;
75386;SDS011;63966;47.914;22.266;2023-05-17T15:23:56;12.43;;;4.03;;
75386;SDS011;63966;47.914;22.266;2023-05-17T15:26:59;10.57;;;3.20;;
75386;SDS011;63966;47.914;22.266;2023-05-17T15:30:03;9.50;;;2.70;;
75386;SDS011;63966;47.914;22.266;2023-05-17T15:33:07;8.20;;;3.28;;
75386;SDS011;63966;47.914;22.266;2023-05-17T15:36:11;8.50;;;2.85;;
75386;SDS011;63966;47.914;22.266;2023-05-17T15:39:16;10.52;;;3.08;;
75386;SDS011;63966;47.914;22.266;2023-05-17T15:42:19;10.73;;;3.17;;
75386;SDS011;63966;47.914;22.266;2023-05-17T15:45:22;11.37;;;3.60;;
75386;SDS011;63966;47.914;22.266;2023-05-17T15:48:26;10.13;;;3.55;;
75386;SDS011;63966;47.914;22.266;2023-05-17T15:51:32;9.43;;;3.58;;
75386;SDS011;63966;47.914;22.266;2023-05-17T15:54:36;9.63;;;3.10;;
75386;SDS011;63966;47.914;22.266;2023-05-17T15:57:39;8.70;;;3.00;;
75386;SDS011;63966;47.914;22.266;2023-05-17T16:00:43;7.43;;;2.73;;
75386;SDS011;63966;47.914;22.266;2023-05-17T16:03:47;11.55;;;3.40;;
75386;SDS011;63966;47.914;22.266;2023-05-17T16:06:51;16.35;;;6.20;;
75386;SDS011;63966;47.914;22.266;2023-05-17T16:09:54;15.93;;;4.85;;
75386;SDS011;63966;47.914;22.266;2023-05-17T16:12:58;26.23;;;9.27;;
75386;SDS011;63966;47.914;22.266;2023-05-17T16:16:01;14.00;;;4.40;;
75386;SDS011;63966;47.914;22.266;2023-05-17T16:19:05;13.75;;;5.65;;
75386;SDS011;63966;47.914;22.266;2023-05-17T16:22:08;13.73;;;6.13;;
75386;SDS011;63966;47.914;22.266;2023-05-17T16:25:15;13.48;;;3.72;;
75386;SDS011;63966;47.914;22.266;2023-05-17T16:28:19;14.03;;;3.50;;
75386;SDS011;63966;47.914;22.266;2023-05-17T16:31:25;9.77;;;4.27;;
75386;SDS011;63966;47.914;22.266;2023-05-17T16:34:29;15.93;;;4.65;;
75386;SDS011;63966;47.914;22.266;2023-05-17T16:37:33;10.82;;;4.60;;
75386;SDS011;63966;47.914;22.266;2023-05-17T16:40:37;13.20;;;4.88;;
75386;SDS011;63966;47.914;22.266;2023-05-17T16:43:41;12.50;;;4.00;;
75386;SDS011;63966;47.914;22.266;2023-05-17T16:46:44;18.77;;;6.67;;
75386;SDS011;63966;47.914;22.266;2023-05-17T16:49:48;16.10;;;6.18;;
75386;SDS011;63966;47.914;22.266;2023-05-17T16:52:51;9.68;;;4.10;;
75386;SDS011;63966;47.914;22.266;2023-05-17T16:55:54;14.80;;;4.47;;
75386;SDS011;63966;47.914;22.266;2023-05-17T16:58:58;23.13;;;8.33;;
75386;SDS011;63966;47.914;22.266;2023-05-17T17:02:01;17.83;;;6.20;;
75386;SDS011;63966;47.914;22.266;2023-05-17T17:05:05;7.00;;;2.90;;
75386;SDS011;63966;47.914;22.266;2023-05-17T17:08:09;8.60;;;2.72;;
75386;SDS011;63966;47.914;22.266;2023-05-17T17:11:12;8.38;;;2.40;;
75386;SDS011;63966;47.914;22.266;2023-05-17T17:14:19;8.67;;;1.90;;
75386;SDS011;63966;47.914;22.266;2023-05-17T17:17:22;8.53;;;2.17;;
75386;SDS011;63966;47.914;22.266;2023-05-17T17:20:26;6.85;;;2.00;;
75386;SDS011;63966;47.914;22.266;2023-05-17T17:23:30;6.03;;;1.85;;
75386;SDS011;63966;47.914;22.266;2023-05-17T17:26:33;5.43;;;1.70;;
75386;SDS011;63966;47.914;22.266;2023-05-17T17:29:37;7.10;;;2.03;;
75386;SDS011;63966;47.914;22.266;2023-05-17T17:32:40;7.30;;;2.20;;
75386;SDS011;63966;47.914;22.266;2023-05-17T17:35:44;6.72;;;1.90;;
75386;SDS011;63966;47.914;22.266;2023-05-17T17:38:47;7.03;;;2.40;;
75386;SDS011;63966;47.914;22.266;2023-05-17T17:41:51;7.72;;;2.00;;
75386;SDS011;63966;47.914;22.266;2023-05-17T17:44:54;8.20;;;2.10;;
75386;SDS011;63966;47.914;22.266;2023-05-17T17:47:57;5.37;;;1.73;;
75386;SDS011;63966;47.914;22.266;2023-05-17T17:51:01;5.43;;;1.92;;
75386;SDS011;63966;47.914;22.266;2023-05-17T17:54:04;7.68;;;2.22;;
75386;SDS011;63966;47.914;22.266;2023-05-17T17:57:08;9.50;;;2.33;;
75386;SDS011;63966;47.914;22.266;2023-05-17T18:00:12;10.90;;;3.20;;
75386;SDS011;63966;47.914;22.266;2023-05-17T18:03:17;20.00;;;5.80;;
75386;SDS011;63966;47.914;22.266;2023-05-17T18:06:21;28.73;;;8.55;;
75386;SDS011;63966;47.914;22.266;2023-05-17T18:09:25;22.88;;;8.02;;
75386;SDS011;63966;47.914;22.266;2023-05-17T18:12:28;21.90;;;11.38;;
75386;SDS011;63966;47.914;22.266;2023-05-17T18:15:32;17.17;;;4.90;;
75386;SDS011;63966;47.914;22.266;2023-05-17T18:18:35;22.20;;;11.53;;
75386;SDS011;63966;47.914;22.266;2023-05-17T18:21:41;21.75;;;7.70;;